Terminal Aerodrome Forecast
Issued by NWS Cleveland, OH

Home | Current Version | Previous Version | Text Only | Print | Product List | Glossary On
Versions: 1 2 3 4 5 6 7 8 9 10 11 12 13 14 15
000
FTUS41 KCLE 251700
TAFERI
TAF
KERI 251722Z 2518/2618 25018G28KT P6SM OVC015
     FM251900 25018G28KT P6SM SCT015 BKN025
     FM252100 25015G25KT P6SM OVC025
     FM252300 23012KT P6SM OVC035
     FM260600 21010KT P6SM BKN250=

USA.gov is the U.S. government's official web portal to all federal, state and local government web resources and services.